San Antonio, TX

11:16 AM CDT en Octubre 01, 2014 (GMT -0500)
Castle Hills | Change Station
CLOSE
Current Station
Estación meteorológica personal
Location: San Antonio, TX
Altura: 869 ft
Estaciones meteorológicas cercanas

Alt 869 ft 29.53 °N, 98.52 °W | Updated 11 minutes ago

Mostly Cloudy
Muy nublado
81.9 ° F
Sensación térmica 88 ° F
N
4.7
Viento Variable Viento desde SO

Hoy
Alta -- | Baja -- ° F
--% Posibilidad de precipitaciones
Ayer
Alta -- | Baja -- ° F
Precip. -- pul
7:27 AM 7:19 PM
Creciente, 49% visible
Presión 29.80 pul
Visibilidad 10.0 Millas
Nubes Muy nublado 2100 ft
Índice de calor 88 ° F
Punto de rocío 74 ° F
Humedad 77%
Precipitaciones 0.00 pul
Espesor de la nieve No disponible.
UV 3 de una escala de 12
Polen 8.90 de una escala de 12
Ozono Buena
PM2.5 Buena
Flu Activity No disponible.
METAR KSAT 011551Z 21008KT 10SM BKN021 27/22 A2985 RMK AO2 SLP091 T02720222

More Conditions Fewer Conditions

Presión 29.80 pul
Visibilidad 10.0 Millas
Nubes Muy nublado 2100 ft
Índice de calor 88 ° F
Punto de rocío 74 ° F
Humedad 77%
Precipitaciones 0.00 pul
Espesor de la nieve No disponible.
UV 3 de una escala de 12
Polen 8.90 de una escala de 12
Ozono Buena
PM2.5 Buena
Flu Activity No disponible.
METAR KSAT 011551Z 21008KT 10SM BKN021 27/22 A2985 RMK AO2 SLP091 T02720222

More Conditions Fewer Conditions

10-Day Weather Forecast

Almanac

Astronomía

Oct. 01, 2014 Salida Puesta
Hora real 7:27 AM CDT 7:19 PM CDT
Crepúsculo civil 7:03 AM CDT 7:43 PM CDT
Crepúsculo náutico 6:36 AM CDT 8:10 PM CDT
Crepúsculo astronómico 6:08 AM CDT 8:38 PM CDT
Luna 2:10 PM CDT 12:12 AM CDT
Horas de luz 12h 39m
Horas de luz
11h 52m
Tomorrow will be 1m 45s shorter.
Creciente, 49% of the Moon is Illuminated
Hoy
Creciente
Oct 1
Cuarto creciente
Oct 8
Luna llena
Oct 15
Cuarto menguante
Oct 23
Nueva

Extremos de hoy

Máximos del estado Bajos del estado

Community

WunderPhotos

Upload Photos

1,757,976 ¡fotos cargadas!

WunderBlogs® & News

Nearby

Calidad del aire

  Calidad del aire Índice AQ Contaminante
Ayer Moderada
OZONE
Ayer Moderada
PM2.5
Real Buena
PM2.5
Real Buena
OZONE
Miércoles Buena
OZONE
Miércoles Buena
PM10
Jueves Buena
OZONE
Jueves Buena
PM10
Viernes Buena
OZONE
Viernes Buena
PM10
Sábado Buena
OZONE
Sábado Buena
PM10

Grosos de nieve

Estación Profundido Altura
No tenemos constancia de nieve nueva.

Actividad de terremotos

Ciudad Distance Mag. Tiempo y dato
No hay informes recientes de la actividad sísmica.
Magnitud mínima muestra es 2,5.

Temperaturas de aguas costeras

Lugar Temperatura
Sin partes meteorológicos de las estaciones

Estaciones meteorológicas cercanas